Time;durP1;ratioP1;P1;durP2;ratioP2;P2;SDS_P1;SDS_P2;PMS_P1;PMS_P2;Temp;Humidity;BMP_temperature;BMP_pressure;BME280_temperature;BME280_humidity;BME280_pressure;Samples;Min_cycle;Max_cycle;Signal;HPM_P1;HPM_P2
2023/04/21 00:02:02;;;;;;;;;17.75;15.75;;;;;10.84;82.46;100981.56;5005620;28;46570;-74
2023/04/21 00:04:27;;;;;;;;;22.00;16.00;;;;;10.81;82.58;100973.59;5001205;28;63029;-76
2023/04/21 00:06:54;;;;;;;;;20.75;19.50;;;;;10.81;82.65;100972.72;5009549;28;60770;-74
2023/04/21 00:09:20;;;;;;;;;16.50;15.00;;;;;10.77;82.97;100965.63;4979225;28;45719;-74
2023/04/21 00:11:45;;;;;;;;;20.00;19.00;;;;;10.75;83.46;100968.25;4973746;28;47644;-74
2023/04/21 00:14:11;;;;;;;;;18.75;15.25;;;;;10.75;83.65;100969.13;4995065;28;69238;-74
2023/04/21 00:16:36;;;;;;;;;18.50;17.00;;;;;10.72;83.36;100966.47;4986831;28;45632;-75
2023/04/21 00:19:05;;;;;;;;;22.75;19.50;;;;;10.68;83.43;100956.72;5008955;28;45570;-76
2023/04/21 00:21:31;;;;;;;;;19.50;14.50;;;;;10.68;84.02;100958.47;5005126;28;48346;-75
2023/04/21 00:23:56;;;;;;;;;15.00;14.75;;;;;10.66;84.29;100960.22;5004653;28;45508;-74
2023/04/21 00:26:22;;;;;;;;;21.25;18.00;;;;;10.63;84.59;100958.41;5007639;28;58303;-74
2023/04/21 00:28:47;;;;;;;;;18.00;16.00;;;;;10.62;84.84;100946.09;4991722;28;63500;-75
2023/04/21 00:31:12;;;;;;;;;22.50;20.50;;;;;10.59;85.14;100947.78;5001251;28;46337;-73
2023/04/21 00:33:38;;;;;;;;;21.75;18.50;;;;;10.55;85.15;100946.00;4991358;28;45321;-74
2023/04/21 00:36:03;;;;;;;;;20.00;15.75;;;;;10.53;85.31;100942.44;5017156;28;60036;-74
2023/04/21 00:38:29;;;;;;;;;25.50;19.00;;;;;10.46;85.64;100934.44;5016178;28;45423;-75
2023/04/21 00:40:54;;;;;;;;;22.25;19.00;;;;;10.49;86.02;100938.84;5007699;28;45686;-75
2023/04/21 00:43:20;;;;;;;;;22.50;18.25;;;;;10.47;86.47;100930.03;4993252;28;45530;-74
2023/04/21 00:45:48;;;;;;;;;19.75;16.50;;;;;10.46;86.82;100936.19;4995352;28;45499;-75
2023/04/21 00:48:13;;;;;;;;;24.00;18.75;;;;;10.42;86.82;100927.34;4996509;28;45609;-74
2023/04/21 00:50:38;;;;;;;;;23.25;18.50;;;;;10.41;86.87;100932.59;4996064;28;46412;-73
2023/04/21 00:53:04;;;;;;;;;19.25;13.00;;;;;10.40;87.01;100933.47;4994542;28;48281;-74
2023/04/21 00:55:30;;;;;;;;;20.00;15.75;;;;;10.34;87.18;100918.47;4996449;28;46941;-74
2023/04/21 00:57:55;;;;;;;;;20.25;18.25;;;;;10.35;87.53;100919.34;4996190;28;45498;-73
2023/04/21 01:00:21;;;;;;;;;17.25;14.50;;;;;10.33;88.11;100915.78;4978325;28;46030;-74
2023/04/21 01:02:46;;;;;;;;;21.25;15.00;;;;;10.34;88.47;100912.28;4993528;28;60326;-75
2023/04/21 01:05:12;;;;;;;;;15.75;13.50;;;;;10.33;88.19;100908.75;4994169;28;55163;-74
2023/04/21 01:07:38;;;;;;;;;18.25;16.75;;;;;10.31;88.36;100915.75;4978436;28;45444;-75
2023/04/21 01:10:04;;;;;;;;;21.75;13.25;;;;;10.29;88.32;100917.50;4994557;28;68544;-74
2023/04/21 01:12:29;;;;;;;;;22.50;20.75;;;;;10.28;88.67;100906.91;4995996;28;45477;-74
2023/04/21 01:14:55;;;;;;;;;19.00;15.50;;;;;10.25;89.21;100906.88;4994897;28;45421;-75
2023/04/21 01:17:20;;;;;;;;;17.00;15.00;;;;;10.28;89.75;100901.63;4992343;28;45921;-75
2023/04/21 01:19:46;;;;;;;;;22.00;15.50;;;;;10.32;90.14;100899.06;4993145;28;45818;-75
2023/04/21 01:22:12;;;;;;;;;21.75;18.00;;;;;10.33;90.07;100892.03;4993523;28;45427;-75
2023/04/21 01:24:47;;;;;;;;;23.75;17.75;;;;;10.37;90.06;100896.47;4977924;28;45530;-75
2023/04/21 01:27:15;;;;;;;;;20.25;17.50;;;;;10.38;90.31;100887.69;4977773;28;45252;-75
2023/04/21 01:29:41;;;;;;;;;20.75;14.50;;;;;10.41;90.30;100890.38;4979274;28;46343;-75
2023/04/21 01:32:14;;;;;;;;;17.50;15.00;;;;;10.44;90.90;100885.16;4976740;28;45377;-75
2023/04/21 01:34:41;;;;;;;;;19.25;15.25;;;;;10.51;91.33;100899.31;4978045;28;45497;-75
2023/04/21 01:37:08;;;;;;;;;23.00;18.00;;;;;10.53;91.23;100895.81;4995910;28;45293;-75
2023/04/21 01:39:37;;;;;;;;;21.25;17.75;;;;;10.60;91.36;100896.75;4977716;28;48210;-73
2023/04/21 01:42:02;;;;;;;;;28.25;20.00;;;;;10.63;91.11;100892.41;4972300;28;45568;-75
2023/04/21 01:44:28;;;;;;;;;20.00;14.50;;;;;10.66;91.23;100888.94;5006037;28;45373;-74
2023/04/21 01:46:53;;;;;;;;;18.50;14.75;;;;;10.65;91.33;100873.94;5002160;28;45458;-75
2023/04/21 01:49:18;;;;;;;;;19.50;17.75;;;;;10.69;91.26;100888.94;5000602;28;67758;-75
2023/04/21 01:51:44;;;;;;;;;24.75;15.00;;;;;10.71;91.61;100881.94;4980206;28;45200;-75
2023/04/21 01:54:09;;;;;;;;;19.25;17.00;;;;;10.73;91.92;100880.19;5010240;28;45412;-76
2023/04/21 01:56:35;;;;;;;;;26.75;18.00;;;;;10.72;91.52;100875.78;5000267;28;50619;-75
2023/04/21 01:59:00;;;;;;;;;20.00;15.50;;;;;10.73;91.36;100870.50;5013854;28;66033;-75
2023/04/21 02:01:25;;;;;;;;;21.25;14.00;;;;;10.75;91.28;100862.59;4993861;28;45728;-74
2023/04/21 02:03:51;;;;;;;;;19.75;16.50;;;;;10.77;91.42;100871.44;5007650;28;51832;-75
2023/04/21 02:06:16;;;;;;;;;20.75;18.00;;;;;10.75;91.59;100860.84;5010989;28;59978;-75
2023/04/21 02:08:42;;;;;;;;;17.25;15.50;;;;;10.80;91.76;100866.19;5008525;28;46494;-75
2023/04/21 02:11:07;;;;;;;;;13.25;13.25;;;;;10.82;91.83;100872.38;5003872;28;45584;-75
2023/04/21 02:13:32;;;;;;;;;23.50;16.25;;;;;10.78;91.63;100862.66;4999785;28;45390;-74
2023/04/21 02:15:58;;;;;;;;;19.00;12.00;;;;;10.82;91.61;100859.19;5002668;28;60517;-75
2023/04/21 02:18:23;;;;;;;;;12.50;12.50;;;;;10.86;91.56;100854.78;5017648;28;55493;-75
2023/04/21 02:20:48;;;;;;;;;21.00;14.75;;;;;10.85;91.72;100855.66;5000330;28;63131;-75
2023/04/21 02:23:14;;;;;;;;;19.25;14.75;;;;;10.87;91.96;100854.81;4988894;28;45459;-75
2023/04/21 02:25:39;;;;;;;;;20.75;19.75;;;;;10.89;92.28;100857.47;4993234;28;47004;-74
2023/04/21 02:28:04;;;;;;;;;17.75;17.75;;;;;10.90;92.51;100852.19;5014332;28;49460;-75
2023/04/21 02:30:30;;;;;;;;;25.00;13.25;;;;;10.91;92.07;100851.31;5009053;28;62079;-75
2023/04/21 02:32:55;;;;;;;;;18.00;15.75;;;;;10.93;92.08;100851.34;4990555;28;45321;-75
2023/04/21 02:35:21;;;;;;;;;17.00;15.50;;;;;10.91;92.04;100851.31;5006361;28;45266;-75
2023/04/21 02:37:46;;;;;;;;;19.25;15.00;;;;;10.90;92.06;100840.75;5003154;28;46982;-73
2023/04/21 02:40:11;;;;;;;;;18.25;13.75;;;;;10.92;92.38;100847.84;5014698;28;64071;-74
2023/04/21 02:42:37;;;;;;;;;20.75;15.50;;;;;10.95;92.89;100845.19;4999879;28;45881;-74
2023/04/21 02:45:02;;;;;;;;;15.50;13.25;;;;;10.95;92.61;100845.19;4997251;28;54221;-74
2023/04/21 02:47:28;;;;;;;;;18.50;18.00;;;;;10.94;92.54;100842.56;4996370;28;46579;-75
2023/04/21 02:49:53;;;;;;;;;21.75;17.25;;;;;10.93;92.82;100835.50;4979404;28;64338;-74
2023/04/21 02:52:18;;;;;;;;;15.50;15.50;;;;;10.95;92.27;100850.50;4996912;28;59847;-74
2023/04/21 02:54:44;;;;;;;;;18.75;13.50;;;;;10.94;92.45;100843.44;4972492;28;55848;-75
2023/04/21 02:57:09;;;;;;;;;18.25;13.75;;;;;10.97;92.79;100845.22;4997962;28;46281;-74
2023/04/21 02:59:34;;;;;;;;;20.25;17.25;;;;;10.97;92.90;100845.22;4997520;28;63325;-75
2023/04/21 03:02:00;;;;;;;;;20.25;15.75;;;;;10.98;92.76;100845.25;4999294;28;45425;-74
2023/04/21 03:04:25;;;;;;;;;17.75;15.50;;;;;10.99;92.67;100831.16;4977064;28;48370;-75
2023/04/21 03:06:51;;;;;;;;;19.25;14.75;;;;;10.97;92.55;100827.63;4997627;28;46761;-75
2023/04/21 03:09:16;;;;;;;;;16.25;15.00;;;;;10.98;92.75;100842.59;4981100;28;45599;-75
2023/04/21 03:11:42;;;;;;;;;18.25;14.25;;;;;10.98;92.92;100831.16;4996101;28;58398;-75
2023/04/21 03:14:07;;;;;;;;;24.00;19.00;;;;;10.98;93.09;100821.47;4998418;28;45500;-74
2023/04/21 03:16:32;;;;;;;;;18.50;13.00;;;;;10.99;93.26;100825.88;4995863;28;66473;-74
2023/04/21 03:18:58;;;;;;;;;19.75;16.25;;;;;10.99;93.18;100817.06;4996491;28;45408;-76
2023/04/21 03:21:23;;;;;;;;;24.50;16.50;;;;;11.01;92.90;100820.59;4996409;28;58869;-74
2023/04/21 03:23:48;;;;;;;;;21.00;14.00;;;;;11.03;92.84;100826.81;4997265;28;59191;-75
2023/04/21 03:26:14;;;;;;;;;17.00;15.25;;;;;11.01;93.17;100824.13;4996048;28;66319;-73
2023/04/21 03:28:39;;;;;;;;;21.50;15.50;;;;;11.03;93.42;100829.44;4997068;28;64853;-75
2023/04/21 03:31:04;;;;;;;;;21.25;16.50;;;;;11.01;93.61;100810.91;4996562;28;63024;-74
2023/04/21 03:33:30;;;;;;;;;16.25;15.75;;;;;11.05;93.76;100816.22;4996634;28;45832;-74
2023/04/21 03:35:55;;;;;;;;;19.50;14.00;;;;;11.06;93.51;100815.34;4996147;28;68989;-74
2023/04/21 03:38:20;;;;;;;;;18.00;14.75;;;;;11.07;93.35;100809.19;4996710;28;64921;-74
2023/04/21 03:40:46;;;;;;;;;17.75;14.50;;;;;11.05;93.39;100810.94;4997570;28;54793;-74
2023/04/21 03:43:11;;;;;;;;;22.25;16.25;;;;;11.06;93.55;100804.78;4992773;28;45532;-75
2023/04/21 03:45:36;;;;;;;;;14.50;13.50;;;;;11.04;93.74;100806.53;4996137;28;64473;-74
2023/04/21 03:48:02;;;;;;;;;25.00;13.50;;;;;11.06;93.91;100810.97;4996498;28;65558;-75
2023/04/21 03:50:28;;;;;;;;;20.75;19.75;;;;;11.01;93.79;100797.69;4978380;28;45799;-74
2023/04/21 03:52:53;;;;;;;;;28.50;21.75;;;;;11.04;94.02;100804.78;4997806;28;45397;-74
2023/04/21 03:55:18;;;;;;;;;39.75;34.25;;;;;11.01;93.90;100796.81;4978261;28;67787;-75
2023/04/21 03:57:44;;;;;;;;;48.00;38.25;;;;;11.04;94.12;100803.91;4978933;28;45313;-75
2023/04/21 04:00:10;;;;;;;;;42.50;36.50;;;;;11.04;94.37;100798.63;4997035;28;45195;-75
2023/04/21 04:02:35;;;;;;;;;38.50;28.75;;;;;11.06;94.63;100804.78;4980327;28;45297;-74
2023/04/21 04:05:04;;;;;;;;;26.75;22.25;;;;;11.04;94.75;100791.56;4981985;28;46639;-74
2023/04/21 04:07:31;;;;;;;;;39.75;27.00;;;;;11.06;94.71;100797.75;4978737;28;45480;-74
2023/04/21 04:09:56;;;;;;;;;25.00;20.00;;;;;11.05;94.64;100784.53;4962953;28;45307;-75
2023/04/21 04:12:22;;;;;;;;;25.25;19.25;;;;;11.06;94.51;100786.28;4978137;28;56995;-73
2023/04/21 04:14:47;;;;;;;;;32.25;25.25;;;;;11.02;94.60;100782.72;4995500;28;49800;-75
2023/04/21 04:17:12;;;;;;;;;33.50;24.75;;;;;11.04;94.99;100785.41;4978101;28;62045;-74
2023/04/21 04:19:38;;;;;;;;;33.75;26.75;;;;;11.04;95.42;100793.34;4997851;28;58356;-74
2023/04/21 04:22:03;;;;;;;;;29.25;22.00;;;;;11.01;95.74;100779.19;4996522;28;55577;-74
2023/04/21 04:24:29;;;;;;;;;26.50;20.25;;;;;11.06;95.55;100791.56;4995514;28;64490;-74
2023/04/21 04:26:56;;;;;;;;;22.25;19.75;;;;;11.06;95.36;100795.09;4977736;28;45425;-74
2023/04/21 04:29:22;;;;;;;;;19.50;18.75;;;;;11.06;95.37;100776.59;4992747;28;45405;-74
2023/04/21 04:31:48;;;;;;;;;25.00;19.75;;;;;11.09;95.51;100783.69;4978105;28;45491;-75
2023/04/21 04:34:14;;;;;;;;;18.75;16.50;;;;;11.10;95.80;100785.44;4979060;28;46566;-74
2023/04/21 04:36:41;;;;;;;;;16.75;15.50;;;;;11.08;95.96;100788.09;4995277;28;46166;-74
2023/04/21 04:39:07;;;;;;;;;24.00;18.50;;;;;11.10;95.96;100780.16;4996275;28;45438;-75
2023/04/21 04:41:32;;;;;;;;;16.75;14.50;;;;;11.12;95.83;100791.63;4970919;28;45672;-74
2023/04/21 04:43:58;;;;;;;;;17.75;16.50;;;;;11.11;95.68;100787.22;4995699;28;46139;-74
2023/04/21 04:46:24;;;;;;;;;17.75;15.75;;;;;11.12;95.92;100783.69;4991659;28;45370;-76
2023/04/21 04:48:50;;;;;;;;;16.25;13.75;;;;;11.10;95.78;100781.06;4995769;28;45455;-74
2023/04/21 04:51:15;;;;;;;;;26.00;16.75;;;;;11.10;96.28;100785.44;4995978;28;45849;-74
2023/04/21 04:53:41;;;;;;;;;19.25;16.25;;;;;11.11;96.22;100785.47;5001390;28;46514;-74
2023/04/21 04:56:06;;;;;;;;;27.00;22.50;;;;;11.13;96.35;100782.81;4977354;28;49739;-73
2023/04/21 04:58:32;;;;;;;;;21.25;19.50;;;;;11.11;96.45;100785.47;5004140;28;45437;-75
2023/04/21 05:00:57;;;;;;;;;18.00;15.50;;;;;11.12;96.22;100776.66;4994848;28;58720;-74
2023/04/21 05:03:22;;;;;;;;;18.25;17.00;;;;;11.16;96.13;100782.84;4988791;28;63218;-73
2023/04/21 05:05:48;;;;;;;;;11.75;11.75;;;;;11.17;96.12;100787.25;4996003;28;52821;-75
2023/04/21 05:08:13;;;;;;;;;24.75;19.00;;;;;11.15;95.90;100783.72;4977724;28;45400;-75
2023/04/21 05:10:39;;;;;;;;;22.00;16.00;;;;;11.12;95.71;100783.69;4995689;28;56378;-74
2023/04/21 05:13:04;;;;;;;;;20.75;17.25;;;;;11.14;96.41;100785.50;4995046;28;46082;-74
2023/04/21 05:15:29;;;;;;;;;19.75;13.25;;;;;11.14;96.81;100784.63;4998061;28;45695;-75
2023/04/21 05:17:55;;;;;;;;;23.25;19.00;;;;;11.16;97.05;100777.56;4978169;28;45663;-74
2023/04/21 05:20:20;;;;;;;;;18.25;16.50;;;;;11.15;96.86;100779.31;4995304;28;62290;-75
2023/04/21 05:22:46;;;;;;;;;23.00;17.25;;;;;11.19;96.88;100782.88;4985904;28;46760;-76
2023/04/21 05:25:14;;;;;;;;;19.00;16.25;;;;;11.19;97.04;100780.25;4994136;28;46036;-76
2023/04/21 05:27:40;;;;;;;;;18.50;14.25;;;;;11.20;96.63;100782.00;4997160;28;45523;-74
2023/04/21 05:30:06;;;;;;;;;21.25;19.00;;;;;11.21;96.97;100773.19;4994085;28;45551;-74
2023/04/21 05:32:32;;;;;;;;;21.25;19.25;;;;;11.23;97.76;100772.31;4995329;28;47810;-74
2023/04/21 05:34:58;;;;;;;;;17.00;16.25;;;;;11.24;97.85;100774.13;4975359;28;58384;-74
2023/04/21 05:37:24;;;;;;;;;23.25;17.25;;;;;11.26;97.95;100774.13;4985823;28;45600;-74
2023/04/21 05:39:50;;;;;;;;;27.25;21.25;;;;;11.26;98.23;100771.47;4994867;28;45511;-74
2023/04/21 05:42:17;;;;;;;;;29.75;19.75;;;;;11.30;99.05;100778.56;5134169;22;46878;-72
2023/04/21 05:44:42;;;;;;;;;28.75;21.50;;;;;11.32;99.78;100773.28;4996347;28;45452;-74
2023/04/21 05:47:07;;;;;;;;;23.75;21.00;;;;;11.32;100.00;100768.88;4989752;28;45290;-74
2023/04/21 05:49:33;;;;;;;;;25.50;22.75;;;;;11.33;100.00;100775.03;5012773;28;45234;-75
2023/04/21 05:51:58;;;;;;;;;23.50;20.25;;;;;11.30;100.00;100770.63;5012601;28;63103;-74
2023/04/21 05:54:24;;;;;;;;;23.50;18.00;;;;;11.30;100.00;100760.06;5000027;28;46286;-74
2023/04/21 05:56:49;;;;;;;;;23.25;20.00;;;;;11.32;100.00;100768.88;5011553;28;46150;-75
2023/04/21 05:59:15;;;;;;;;;31.50;22.00;;;;;11.31;100.00;100782.09;4992108;28;45499;-73
2023/04/21 06:01:40;;;;;;;;;18.25;17.75;;;;;11.31;100.00;100772.41;4995524;28;46000;-74
2023/04/21 06:04:06;;;;;;;;;25.50;19.75;;;;;11.25;100.00;100769.72;4991051;28;45533;-76
2023/04/21 06:06:31;;;;;;;;;24.00;21.75;;;;;11.30;100.00;100781.22;4994963;28;57958;-75
2023/04/21 06:08:56;;;;;;;;;24.50;20.50;;;;;11.30;100.00;100781.22;4989349;28;55032;-76
2023/04/21 06:11:22;;;;;;;;;28.75;25.00;;;;;11.32;100.00;100781.22;4992417;28;70173;-74
2023/04/21 06:13:48;;;;;;;;;32.75;25.25;;;;;11.31;100.00;100779.44;5012572;28;45468;-74
2023/04/21 06:16:14;;;;;;;;;28.75;23.00;;;;;11.34;100.00;100766.22;5018005;28;45369;-75
2023/04/21 06:18:39;;;;;;;;;23.75;21.75;;;;;11.36;100.00;100767.16;4998327;28;50161;-74
2023/04/21 06:21:04;;;;;;;;;26.75;20.75;;;;;11.37;100.00;100774.19;5017647;28;60476;-75
2023/04/21 06:23:30;;;;;;;;;25.00;21.00;;;;;11.38;100.00;100771.56;5018019;28;45369;-74
2023/04/21 06:26:04;;;;;;;;;26.75;24.50;;;;;11.41;100.00;100776.88;5018841;28;45514;-74
2023/04/21 06:28:30;;;;;;;;;19.75;17.50;;;;;11.40;100.00;100766.28;5011731;28;45404;-75
2023/04/21 06:30:56;;;;;;;;;38.00;23.50;;;;;11.39;100.00;100765.38;5000322;28;45782;-75
2023/04/21 06:33:21;;;;;;;;;28.00;21.25;;;;;11.38;100.00;100760.97;5018778;28;46091;-76
2023/04/21 06:35:46;;;;;;;;;23.75;17.75;;;;;11.41;100.00;100766.31;4999935;28;58839;-76
2023/04/21 06:38:12;;;;;;;;;34.25;24.50;;;;;11.42;100.00;100773.34;5017705;28;53157;-75
2023/04/21 06:40:37;;;;;;;;;24.00;20.00;;;;;11.42;100.00;100769.81;4999117;28;63364;-74
2023/04/21 06:43:02;;;;;;;;;26.75;20.75;;;;;11.46;100.00;100766.34;5022746;28;66656;-74
2023/04/21 06:45:28;;;;;;;;;33.00;22.75;;;;;11.48;100.00;100767.22;5034063;28;45253;-76
2023/04/21 06:47:53;;;;;;;;;27.00;23.00;;;;;11.49;100.00;100759.28;5019766;28;61694;-74
2023/04/21 06:50:18;;;;;;;;;26.50;21.75;;;;;11.55;100.00;100769.00;5028773;28;67024;-74
2023/04/21 06:52:43;;;;;;;;;29.50;21.75;;;;;11.52;100.00;100756.69;5019102;28;45439;-74
2023/04/21 06:55:09;;;;;;;;;28.75;22.75;;;;;11.55;100.00;100767.25;5032062;28;59094;-75
2023/04/21 06:57:34;;;;;;;;;25.25;23.00;;;;;11.56;100.00;100765.53;5032676;28;47160;-75
2023/04/21 07:00:00;;;;;;;;;34.00;23.25;;;;;11.60;100.00;100769.94;5035371;28;46657;-74
2023/04/21 07:02:25;;;;;;;;;27.25;23.25;;;;;11.64;100.00;100776.13;4999866;28;62639;-75
2023/04/21 07:04:50;;;;;;;;;22.00;20.75;;;;;11.72;100.00;100771.78;5030878;28;59224;-74
2023/04/21 07:07:16;;;;;;;;;29.75;23.50;;;;;11.78;100.00;100766.50;5011682;28;59218;-74
2023/04/21 07:09:41;;;;;;;;;30.00;24.50;;;;;11.86;100.00;100767.47;5036310;28;45613;-74
2023/04/21 07:12:06;;;;;;;;;25.50;23.75;;;;;11.95;100.00;100759.56;5026374;28;46547;-74
2023/04/21 07:14:32;;;;;;;;;32.50;22.75;;;;;12.06;100.00;100757.84;5017388;28;55470;-73
2023/04/21 07:16:57;;;;;;;;;14.25;9.25;;;;;12.18;100.00;100758.75;5020631;28;58410;-75
2023/04/21 07:19:22;;;;;;;;;29.75;24.75;;;;;12.29;100.00;100760.56;5028311;28;46044;-73
2023/04/21 07:21:48;;;;;;;;;23.50;19.50;;;;;12.38;100.00;100758.81;5032000;28;45578;-73
2023/04/21 07:24:13;;;;;;;;;23.25;21.00;;;;;12.42;100.00;100758.84;5023535;28;55845;-76
2023/04/21 07:26:38;;;;;;;;;26.75;18.75;;;;;12.49;100.00;100752.66;5033614;28;45522;-74
2023/04/21 07:29:04;;;;;;;;;25.00;20.50;;;;;12.48;100.00;100747.38;5034393;28;61296;-73
2023/04/21 07:31:29;;;;;;;;;25.75;22.00;;;;;12.54;100.00;100742.09;5016176;28;45407;-74
2023/04/21 07:33:55;;;;;;;;;21.00;19.50;;;;;12.59;100.00;100742.97;5009609;28;45746;-73
2023/04/21 07:36:20;;;;;;;;;28.25;24.50;;;;;12.67;100.00;100746.50;5019066;28;45553;-76
2023/04/21 07:38:45;;;;;;;;;22.00;20.25;;;;;12.71;100.00;100740.34;5016760;28;45803;-74
2023/04/21 07:41:11;;;;;;;;;25.75;21.50;;;;;12.76;100.00;100741.22;5034312;28;45514;-75
2023/04/21 07:43:37;;;;;;;;;24.25;21.50;;;;;12.75;100.00;100743.88;5001058;28;45454;-75
2023/04/21 07:46:03;;;;;;;;;24.00;18.25;;;;;12.77;100.00;100737.69;5017084;28;45555;-74
2023/04/21 07:48:28;;;;;;;;;24.00;18.75;;;;;12.83;100.00;100739.44;5004110;28;46383;-74
2023/04/21 07:50:54;;;;;;;;;27.50;20.50;;;;;12.96;100.00;100735.06;5024369;28;63738;-76
2023/04/21 07:53:19;;;;;;;;;28.00;25.50;;;;;13.06;100.00;100742.13;5015525;28;45571;-74
2023/04/21 07:55:45;;;;;;;;;27.00;23.25;;;;;13.14;100.00;100736.78;5015032;28;45575;-74
2023/04/21 07:58:10;;;;;;;;;26.25;22.50;;;;;13.25;100.00;100745.66;5000127;28;46549;-74
2023/04/21 08:00:36;;;;;;;;;25.25;20.50;;;;;13.26;100.00;100745.66;5021398;28;45854;-73
2023/04/21 08:03:01;;;;;;;;;24.50;20.50;;;;;13.28;100.00;100745.66;5012217;28;45503;-75
2023/04/21 08:05:27;;;;;;;;;29.25;21.00;;;;;13.30;100.00;100734.16;5013927;28;63419;-79
2023/04/21 08:07:53;;;;;;;;;25.75;22.00;;;;;13.33;100.00;100734.16;5014146;28;45698;-73
2023/04/21 08:10:18;;;;;;;;;20.75;20.75;;;;;13.36;100.00;100726.19;5014029;28;66073;-74
2023/04/21 08:12:43;;;;;;;;;22.75;19.25;;;;;13.39;100.00;100730.59;5018446;28;45557;-75
2023/04/21 08:15:11;;;;;;;;;18.00;14.25;;;;;13.40;100.00;100737.66;4997479;28;45563;-75
2023/04/21 08:17:36;;;;;;;;;25.00;20.25;;;;;13.43;100.00;100732.38;5012741;28;46149;-75
2023/04/21 08:20:03;;;;;;;;;25.00;18.75;;;;;13.56;100.00;100735.88;4997419;28;45427;-74
2023/04/21 08:22:28;;;;;;;;;21.00;17.00;;;;;13.63;100.00;100725.25;4996335;28;45518;-75
2023/04/21 08:24:54;;;;;;;;;15.00;14.50;;;;;13.75;99.56;100726.97;5008818;28;52599;-75
2023/04/21 08:27:19;;;;;;;;;18.75;16.25;;;;;13.89;98.03;100733.09;5013195;28;66816;-78
2023/04/21 08:29:44;;;;;;;;;18.00;16.50;;;;;13.98;97.41;100726.88;4989883;28;45425;-78
2023/04/21 08:32:10;;;;;;;;;22.75;19.50;;;;;14.11;97.59;100725.03;4995509;28;50777;-79
2023/04/21 08:34:35;;;;;;;;;24.00;22.75;;;;;14.16;97.55;100725.88;4996426;28;59703;-76
2023/04/21 08:37:00;;;;;;;;;23.00;19.50;;;;;14.21;96.76;100728.50;4982751;28;65508;-74
2023/04/21 08:39:26;;;;;;;;;24.75;22.00;;;;;14.20;95.88;100732.06;4998367;28;69921;-79
2023/04/21 08:41:52;;;;;;;;;27.75;21.75;;;;;14.16;95.66;100729.41;4997085;28;45507;-74
2023/04/21 08:44:19;;;;;;;;;21.00;19.50;;;;;14.12;95.06;100726.81;4996272;28;45646;-74
2023/04/21 08:46:48;;;;;;;;;23.75;17.75;;;;;14.05;94.89;100728.59;5011487;28;46387;-74
2023/04/21 08:49:18;;;;;;;;;25.50;21.50;;;;;13.99;94.15;100730.41;5014275;28;45567;-75
2023/04/21 08:51:43;;;;;;;;;22.50;21.00;;;;;13.93;93.96;100725.13;5013601;28;45530;-75
2023/04/21 08:54:09;;;;;;;;;27.50;21.75;;;;;13.92;94.50;100723.38;5014085;28;52770;-74
2023/04/21 08:56:34;;;;;;;;;30.25;25.75;;;;;13.97;93.78;100730.41;5014551;28;46364;-75
2023/04/21 08:58:59;;;;;;;;;26.25;20.75;;;;;14.04;93.00;100723.28;5008856;28;45446;-75
2023/04/21 09:01:25;;;;;;;;;22.25;21.00;;;;;14.10;92.75;100726.78;5014129;28;45446;-75
2023/04/21 09:03:50;;;;;;;;;22.75;20.00;;;;;14.20;92.31;100724.09;5011181;28;45530;-75
2023/04/21 09:06:15;;;;;;;;;19.75;19.25;;;;;14.27;90.71;100720.50;5011958;28;54355;-74
2023/04/21 09:08:42;;;;;;;;;24.50;22.75;;;;;14.33;89.59;100720.50;4992692;28;45522;-75
2023/04/21 09:11:12;;;;;;;;;22.75;17.00;;;;;14.39;89.71;100716.03;5009315;28;45380;-74
2023/04/21 09:13:38;;;;;;;;;19.50;18.75;;;;;14.50;90.36;100718.63;5008910;28;45668;-74
2023/04/21 09:16:13;;;;;;;;;23.25;18.00;;;;;14.64;89.24;100723.84;5008532;28;47256;-74
2023/04/21 09:18:39;;;;;;;;;16.00;15.50;;;;;14.70;88.77;100722.91;5010023;28;45721;-75
2023/04/21 09:21:13;;;;;;;;;21.00;15.75;;;;;14.75;88.43;100729.06;5014999;28;45448;-74
2023/04/21 09:23:49;;;;;;;;;17.25;16.00;;;;;14.77;86.78;100722.88;4996086;28;45484;-74
2023/04/21 09:26:17;;;;;;;;;18.00;17.50;;;;;14.75;85.74;100727.28;5014296;28;46215;-74
2023/04/21 09:28:43;;;;;;;;;21.00;15.75;;;;;14.72;84.99;100727.34;4993549;28;45488;-74
2023/04/21 09:31:19;;;;;;;;;17.75;17.25;;;;;14.71;85.33;100730.00;4994980;28;45488;-74
2023/04/21 09:33:46;;;;;;;;;23.00;17.50;;;;;14.70;85.25;100729.13;5011678;28;45492;-73
2023/04/21 09:36:18;;;;;;;;;17.25;16.50;;;;;14.74;85.54;100722.00;4996451;28;48268;-74
2023/04/21 09:38:54;;;;;;;;;16.50;16.00;;;;;14.82;85.73;100721.06;4995342;28;45496;-75
2023/04/21 09:41:20;;;;;;;;;18.75;18.75;;;;;14.92;85.91;100713.88;5010155;28;45534;-74
2023/04/21 09:43:47;;;;;;;;;19.50;17.25;;;;;15.01;85.29;100716.44;5026446;28;45637;-75
2023/04/21 09:46:15;;;;;;;;;21.25;17.25;;;;;15.10;85.31;100713.72;5031258;28;46765;-74
2023/04/21 09:48:43;;;;;;;;;15.25;13.75;;;;;15.19;84.78;100712.75;5036244;28;45527;-76
2023/04/21 09:51:11;;;;;;;;;20.00;18.50;;;;;15.30;84.04;100715.31;5034725;28;45469;-73
2023/04/21 09:53:38;;;;;;;;;21.50;17.50;;;;;15.32;83.91;100709.06;5039443;28;45497;-75
2023/04/21 09:56:05;;;;;;;;;20.25;19.00;;;;;15.35;82.45;100714.34;5040792;28;46973;-74
2023/04/21 09:58:36;;;;;;;;;17.00;17.00;;;;;15.34;82.72;100706.38;5022568;28;45309;-74
2023/04/21 10:01:03;;;;;;;;;18.75;15.25;;;;;15.36;82.60;100693.94;5022193;28;45393;-75
2023/04/21 10:03:29;;;;;;;;;20.00;17.00;;;;;15.40;82.48;100693.91;5038331;28;45382;-75
2023/04/21 10:05:55;;;;;;;;;19.25;18.50;;;;;15.50;81.16;100708.00;5020296;28;45917;-74
2023/04/21 10:08:21;;;;;;;;;16.50;15.50;;;;;15.58;80.67;100708.78;5034184;28;45589;-74
2023/04/21 10:10:47;;;;;;;;;21.50;18.00;;;;;15.62;80.20;100705.19;5022301;28;45520;-75
2023/04/21 10:13:17;;;;;;;;;20.00;17.25;;;;;15.63;79.84;100709.63;5022626;28;45533;-76
2023/04/21 10:15:42;;;;;;;;;18.00;17.25;;;;;15.60;79.47;100704.28;5043698;28;46584;-75
2023/04/21 10:18:21;;;;;;;;;17.50;17.25;;;;;15.59;79.04;100705.19;5007327;28;47074;-74
2023/04/21 10:20:55;;;;;;;;;19.00;17.50;;;;;15.58;79.68;100698.13;5022165;28;45606;-71
2023/04/21 10:23:44;;;;;;;;;27.50;22.25;;;;;15.63;79.46;100700.78;5040436;28;45365;-75
2023/04/21 10:26:38;;;;;;;;;24.75;20.25;;;;;15.72;78.75;100700.66;5040550;28;45757;-75
2023/04/21 10:29:05;;;;;;;;;27.50;20.00;;;;;15.74;78.59;100701.50;5015956;28;47235;-74
2023/04/21 10:31:53;;;;;;;;;20.75;19.00;;;;;15.76;77.88;100699.72;5038976;28;45649;-74
2023/04/21 10:34:20;;;;;;;;;20.50;18.50;;;;;15.82;77.18;100690.75;5021780;28;46563;-78
2023/04/21 10:36:50;;;;;;;;;23.50;19.00;;;;;15.85;76.68;100693.41;5021174;28;45952;-76
2023/04/21 10:39:34;;;;;;;;;20.33;16.67;;;;;15.87;75.66;100688.91;5038546;28;45445;-75
2023/04/21 10:42:12;;;;;;;;;20.75;18.75;;;;;15.86;74.64;100687.16;5041177;28;45343;-75
2023/04/21 10:44:43;;;;;;;;;21.00;18.25;;;;;15.81;74.03;100683.69;5040344;28;45595;-77
2023/04/21 10:47:08;;;;;;;;;23.50;22.50;;;;;15.82;74.05;100680.09;5023588;28;47807;-77
2023/04/21 10:49:39;;;;;;;;;18.75;18.75;;;;;15.86;73.84;100677.38;5022773;28;45578;-75
2023/04/21 10:52:05;;;;;;;;;19.75;18.00;;;;;15.91;74.10;100680.00;5036213;28;45548;-75
2023/04/21 10:55:11;;;;;;;;;24.00;22.00;;;;;15.95;73.73;100677.28;5022641;28;45609;-76
2023/04/21 10:57:37;;;;;;;;;21.25;18.50;;;;;16.00;73.61;100666.56;5028882;28;45791;-76
2023/04/21 11:00:08;;;;;;;;;22.75;21.00;;;;;16.07;73.24;100660.25;5026023;28;45411;-76
2023/04/21 11:02:34;;;;;;;;;21.25;21.25;;;;;16.12;73.05;100668.16;5002063;28;45412;-75
2023/04/21 11:05:00;;;;;;;;;22.00;18.75;;;;;16.20;72.93;100663.63;5001385;28;45609;-77